Time;durP1;ratioP1;P1;durP2;ratioP2;P2;SDS_P1;SDS_P2;PMS_P1;PMS_P2;Temp;Humidity;BMP_temperature;BMP_pressure;BME280_temperature;BME280_humidity;BME280_pressure;Samples;Min_cycle;Max_cycle;Signal;HPM_P1;HPM_P2
2022/04/08 00:01:25;;;;;;;43.72;24.30;;;;;;;;;;4939114;29;20034;-54
2022/04/08 00:03:52;;;;;;;40.08;24.33;;;;;;;;;;4938766;29;20462;-53
2022/04/08 00:06:18;;;;;;;37.42;23.25;;;;;;;;;;4938979;29;20028;-55
2022/04/08 00:08:45;;;;;;;37.05;22.48;;;;;;;;;;4938437;29;20031;-55
2022/04/08 00:11:12;;;;;;;43.92;22.77;;;;;;;;;;4938589;29;20047;-56
2022/04/08 00:13:38;;;;;;;34.13;21.98;;;;;;;;;;4939033;29;20027;-55
2022/04/08 00:16:05;;;;;;;31.80;21.70;;;;;;;;;;4938573;29;20020;-54
2022/04/08 00:18:31;;;;;;;33.60;21.02;;;;;;;;;;4938132;29;20044;-52
2022/04/08 00:20:59;;;;;;;32.28;20.85;;;;;;;;;;4938706;29;20064;-54
2022/04/08 00:23:25;;;;;;;33.65;21.27;;;;;;;;;;4938369;29;20031;-53
2022/04/08 00:25:51;;;;;;;35.47;20.80;;;;;;;;;;4938424;29;20035;-56
2022/04/08 00:28:18;;;;;;;36.35;22.40;;;;;;;;;;4938331;29;20412;-54
2022/04/08 00:30:44;;;;;;;36.03;23.05;;;;;;;;;;4938110;29;20036;-54
2022/04/08 00:33:10;;;;;;;42.55;25.73;;;;;;;;;;4938508;29;20035;-55
2022/04/08 00:35:36;;;;;;;45.60;29.30;;;;;;;;;;4938523;29;20020;-54
2022/04/08 00:38:02;;;;;;;49.13;30.17;;;;;;;;;;4938443;29;20028;-54
2022/04/08 00:40:29;;;;;;;44.63;29.15;;;;;;;;;;4938097;29;20083;-53
2022/04/08 00:42:55;;;;;;;51.60;29.88;;;;;;;;;;4938293;29;20090;-52
2022/04/08 00:45:21;;;;;;;57.65;30.85;;;;;;;;;;4937756;29;20495;-53
2022/04/08 00:47:48;;;;;;;52.45;29.83;;;;;;;;;;4938007;29;20027;-50
2022/04/08 00:50:14;;;;;;;54.47;30.25;;;;;;;;;;4937874;29;20441;-53
2022/04/08 00:52:42;;;;;;;51.10;29.35;;;;;;;;;;4938138;29;20056;-50
2022/04/08 00:55:08;;;;;;;43.53;28.70;;;;;;;;;;4938111;29;20024;-50
2022/04/08 00:57:35;;;;;;;45.78;26.58;;;;;;;;;;4937478;29;20036;-54
2022/04/08 01:00:09;;;;;;;41.90;27.08;;;;;;;;;;4938463;29;20087;-52
2022/04/08 01:02:35;;;;;;;44.70;26.42;;;;;;;;;;4938074;29;20099;-52
2022/04/08 01:05:01;;;;;;;43.25;25.27;;;;;;;;;;4937991;29;20020;-51
2022/04/08 01:07:28;;;;;;;36.05;24.55;;;;;;;;;;4937909;29;20405;-56
2022/04/08 01:09:54;;;;;;;37.20;24.05;;;;;;;;;;4938008;29;20098;-53
2022/04/08 01:12:21;;;;;;;34.40;22.00;;;;;;;;;;4937349;29;20363;-56
2022/04/08 01:14:47;;;;;;;30.10;20.48;;;;;;;;;;4938009;29;20381;-55
2022/04/08 01:17:13;;;;;;;31.48;19.20;;;;;;;;;;4937194;29;20024;-56
2022/04/08 01:19:39;;;;;;;28.08;19.27;;;;;;;;;;4937090;29;20425;-56
2022/04/08 01:22:05;;;;;;;26.48;18.45;;;;;;;;;;4937620;29;20055;-55
2022/04/08 01:24:33;;;;;;;27.98;17.80;;;;;;;;;;4937905;29;20051;-55
2022/04/08 01:27:02;;;;;;;30.38;16.83;;;;;;;;;;4936963;29;20503;-56
2022/04/08 01:29:28;;;;;;;25.20;15.32;;;;;;;;;;4937395;29;20070;-56
2022/04/08 01:31:54;;;;;;;25.30;14.93;;;;;;;;;;4936483;29;20031;-54
2022/04/08 01:34:20;;;;;;;20.13;14.88;;;;;;;;;;4937206;29;20117;-55
2022/04/08 01:36:47;;;;;;;26.02;15.95;;;;;;;;;;4937663;29;20083;-54
2022/04/08 01:39:13;;;;;;;26.90;15.70;;;;;;;;;;4936687;29;20020;-55
2022/04/08 01:41:39;;;;;;;25.23;14.52;;;;;;;;;;4936989;29;20385;-56
2022/04/08 01:44:05;;;;;;;23.88;16.20;;;;;;;;;;4937232;29;20024;-53
2022/04/08 01:46:31;;;;;;;19.20;14.18;;;;;;;;;;4937193;29;20028;-54
2022/04/08 01:48:57;;;;;;;20.58;13.68;;;;;;;;;;4936955;29;20114;-55
2022/04/08 01:51:24;;;;;;;22.42;14.88;;;;;;;;;;4937013;29;20052;-53
2022/04/08 01:53:50;;;;;;;21.48;15.45;;;;;;;;;;4937210;29;20031;-54
2022/04/08 01:56:16;;;;;;;21.85;15.75;;;;;;;;;;4937075;29;20032;-57
2022/04/08 01:58:43;;;;;;;25.23;16.27;;;;;;;;;;4936799;29;20034;-54
2022/04/08 02:01:09;;;;;;;26.60;17.80;;;;;;;;;;4936528;29;20066;-55
2022/04/08 02:03:35;;;;;;;30.05;16.83;;;;;;;;;;4936680;29;20032;-57
2022/04/08 02:06:01;;;;;;;26.13;17.55;;;;;;;;;;4936894;29;20373;-51
2022/04/08 02:08:27;;;;;;;23.48;16.45;;;;;;;;;;4936332;29;20028;-54
2022/04/08 02:10:53;;;;;;;26.67;16.48;;;;;;;;;;4936833;29;20492;-56
2022/04/08 02:13:20;;;;;;;23.50;16.17;;;;;;;;;;4936550;29;20023;-56
2022/04/08 02:15:46;;;;;;;27.08;18.90;;;;;;;;;;4936377;29;20023;-56
2022/04/08 02:18:14;;;;;;;27.40;17.67;;;;;;;;;;4937061;29;20031;-51
2022/04/08 02:20:42;;;;;;;29.25;18.77;;;;;;;;;;4936363;29;20090;-55
2022/04/08 02:23:08;;;;;;;30.80;20.70;;;;;;;;;;4936408;29;20038;-56
2022/04/08 02:25:34;;;;;;;41.63;29.20;;;;;;;;;;4936637;29;20027;-55
2022/04/08 02:28:03;;;;;;;32.15;21.88;;;;;;;;;;4936641;29;20063;-52
2022/04/08 02:30:29;;;;;;;32.40;22.58;;;;;;;;;;4936569;29;20384;-53
2022/04/08 02:32:57;;;;;;;26.13;19.70;;;;;;;;;;4936622;29;20020;-53
2022/04/08 02:35:23;;;;;;;27.67;19.95;;;;;;;;;;4936361;29;20385;-55
2022/04/08 02:37:49;;;;;;;28.75;19.10;;;;;;;;;;4936490;29;20027;-51
2022/04/08 02:40:16;;;;;;;28.02;17.80;;;;;;;;;;4936463;29;20417;-53
2022/04/08 02:42:42;;;;;;;26.13;17.20;;;;;;;;;;4940101;29;20024;-52
2022/04/08 02:45:08;;;;;;;29.88;19.20;;;;;;;;;;4942576;29;20385;-52
2022/04/08 02:47:40;;;;;;;28.83;18.83;;;;;;;;;;4942551;29;20100;-55
2022/04/08 02:50:06;;;;;;;28.85;18.73;;;;;;;;;;4942841;29;20032;-55
2022/04/08 02:52:32;;;;;;;29.80;18.10;;;;;;;;;;4942757;29;20051;-54
2022/04/08 02:54:58;;;;;;;25.10;17.80;;;;;;;;;;4942567;29;20481;-55
2022/04/08 02:57:24;;;;;;;26.17;16.98;;;;;;;;;;4942400;29;20111;-51
2022/04/08 02:59:53;;;;;;;26.55;16.77;;;;;;;;;;4942458;29;20481;-54
2022/04/08 03:02:19;;;;;;;23.00;15.82;;;;;;;;;;4942592;29;20023;-54
2022/04/08 03:04:45;;;;;;;22.60;16.55;;;;;;;;;;4942183;29;20019;-55
2022/04/08 03:07:11;;;;;;;24.20;15.40;;;;;;;;;;4942879;29;20027;-54
2022/04/08 03:09:37;;;;;;;25.02;16.23;;;;;;;;;;4942569;29;20028;-53
2022/04/08 03:12:04;;;;;;;24.50;17.92;;;;;;;;;;4942288;29;20107;-51
2022/04/08 03:14:33;;;;;;;26.10;17.67;;;;;;;;;;4942813;29;20031;-55
2022/04/08 03:16:59;;;;;;;24.92;16.52;;;;;;;;;;4942805;29;20066;-56
2022/04/08 03:19:25;;;;;;;24.13;16.60;;;;;;;;;;4941929;29;20043;-52
2022/04/08 03:21:52;;;;;;;30.58;18.80;;;;;;;;;;4942240;29;20051;-55
2022/04/08 03:24:18;;;;;;;30.52;18.10;;;;;;;;;;4941865;29;20035;-54
2022/04/08 03:26:44;;;;;;;33.28;19.90;;;;;;;;;;4942179;29;20027;-54
2022/04/08 03:29:10;;;;;;;22.65;16.13;;;;;;;;;;4942940;29;20099;-54
2022/04/08 03:31:36;;;;;;;21.15;14.55;;;;;;;;;;4942135;29;20030;-56
2022/04/08 03:34:03;;;;;;;21.10;14.50;;;;;;;;;;4942871;29;20022;-55
2022/04/08 03:36:29;;;;;;;19.63;13.85;;;;;;;;;;4942044;29;20102;-54
2022/04/08 03:38:55;;;;;;;20.88;14.30;;;;;;;;;;4941820;29;20019;-54
2022/04/08 03:41:21;;;;;;;23.00;14.85;;;;;;;;;;4942227;29;20391;-56
2022/04/08 03:43:48;;;;;;;22.17;15.68;;;;;;;;;;4942299;29;20031;-56
2022/04/08 03:46:14;;;;;;;21.30;13.88;;;;;;;;;;4941963;29;20416;-54
2022/04/08 03:48:43;;;;;;;19.13;12.38;;;;;;;;;;4942473;29;20073;-55
2022/04/08 03:51:09;;;;;;;19.00;12.52;;;;;;;;;;4942262;29;20027;-55
2022/04/08 03:53:35;;;;;;;17.17;11.70;;;;;;;;;;4939795;29;20052;-54
2022/04/08 03:56:02;;;;;;;13.85;10.70;;;;;;;;;;4939423;29;20096;-55
2022/04/08 03:58:28;;;;;;;15.43;10.30;;;;;;;;;;4939740;29;20024;-54
2022/04/08 04:00:55;;;;;;;17.30;10.80;;;;;;;;;;4938785;29;20032;-55
2022/04/08 04:03:22;;;;;;;19.17;11.98;;;;;;;;;;4939465;29;20032;-53
2022/04/08 04:05:48;;;;;;;23.38;11.75;;;;;;;;;;4938727;29;20477;-52
2022/04/08 04:08:20;;;;;;;15.77;11.50;;;;;;;;;;4938721;29;20038;-50
2022/04/08 04:10:47;;;;;;;17.60;10.95;;;;;;;;;;4938936;29;20039;-52
2022/04/08 04:13:13;;;;;;;19.65;10.70;;;;;;;;;;4938592;29;20023;-52
2022/04/08 04:15:39;;;;;;;13.23;9.30;;;;;;;;;;4938822;29;20039;-55
2022/04/08 04:18:05;;;;;;;22.63;13.27;;;;;;;;;;4938890;29;20107;-53
2022/04/08 04:20:32;;;;;;;18.30;12.50;;;;;;;;;;4938179;29;20469;-50
2022/04/08 04:22:58;;;;;;;24.58;17.52;;;;;;;;;;4938775;29;20031;-51
2022/04/08 04:25:24;;;;;;;25.17;16.83;;;;;;;;;;4938441;29;20083;-54
2022/04/08 04:27:50;;;;;;;26.60;16.15;;;;;;;;;;4938064;29;20023;-52
2022/04/08 04:30:16;;;;;;;28.38;17.45;;;;;;;;;;4938623;29;20024;-50
2022/04/08 04:32:42;;;;;;;19.75;14.50;;;;;;;;;;4938595;29;20054;-55
2022/04/08 04:35:09;;;;;;;19.00;14.93;;;;;;;;;;4938188;29;20024;-51
2022/04/08 04:37:35;;;;;;;20.80;14.55;;;;;;;;;;4938718;29;20034;-54
2022/04/08 04:40:01;;;;;;;21.60;14.90;;;;;;;;;;4938161;29;20035;-51
2022/04/08 04:42:28;;;;;;;20.55;13.20;;;;;;;;;;4937851;29;20020;-57
2022/04/08 04:44:55;;;;;;;20.70;16.00;;;;;;;;;;4938597;29;20056;-55
2022/04/08 04:47:21;;;;;;;33.25;19.98;;;;;;;;;;4938216;29;20027;-54
2022/04/08 04:49:47;;;;;;;28.40;19.38;;;;;;;;;;4937921;29;20124;-55
2022/04/08 04:52:13;;;;;;;29.30;18.92;;;;;;;;;;4938175;29;20063;-55
2022/04/08 04:54:41;;;;;;;28.60;18.92;;;;;;;;;;4937933;29;20491;-55
2022/04/08 04:57:07;;;;;;;24.90;19.15;;;;;;;;;;4937642;29;20035;-54
2022/04/08 04:59:34;;;;;;;25.75;17.67;;;;;;;;;;4937748;29;20036;-53
2022/04/08 05:02:00;;;;;;;22.98;16.73;;;;;;;;;;4937959;29;20055;-57
2022/04/08 05:04:26;;;;;;;22.10;15.45;;;;;;;;;;4937708;29;20052;-55
2022/04/08 05:06:52;;;;;;;23.25;15.75;;;;;;;;;;4937731;29;20481;-49
2022/04/08 05:09:18;;;;;;;28.13;16.33;;;;;;;;;;4937543;29;20075;-54
2022/04/08 05:11:45;;;;;;;33.80;18.80;;;;;;;;;;4937863;29;20024;-53
2022/04/08 05:14:11;;;;;;;28.90;19.83;;;;;;;;;;4937729;29;20035;-54
2022/04/08 05:16:37;;;;;;;34.45;23.20;;;;;;;;;;4937465;29;20031;-55
2022/04/08 05:19:03;;;;;;;42.88;28.05;;;;;;;;;;4937693;29;20108;-54
2022/04/08 05:21:29;;;;;;;36.17;25.00;;;;;;;;;;4937845;29;20477;-56
2022/04/08 05:23:56;;;;;;;25.15;16.42;;;;;;;;;;4936741;29;20030;-55
2022/04/08 05:26:22;;;;;;;30.02;19.70;;;;;;;;;;4935520;29;20329;-52
2022/04/08 05:28:48;;;;;;;34.40;23.45;;;;;;;;;;4935942;29;20031;-54
2022/04/08 05:31:14;;;;;;;39.25;24.75;;;;;;;;;;4936712;29;20028;-57
2022/04/08 05:33:41;;;;;;;36.58;24.95;;;;;;;;;;4937499;29;20024;-55
2022/04/08 05:36:07;;;;;;;36.17;24.88;;;;;;;;;;4937399;29;20495;-55
2022/04/08 05:38:33;;;;;;;35.95;22.98;;;;;;;;;;4936811;29;20144;-53
2022/04/08 05:41:00;;;;;;;30.55;20.67;;;;;;;;;;4937186;29;20031;-53
2022/04/08 05:43:26;;;;;;;33.47;21.83;;;;;;;;;;4936924;29;20480;-56
2022/04/08 05:45:52;;;;;;;27.00;17.90;;;;;;;;;;4936922;29;20385;-55
2022/04/08 05:48:18;;;;;;;27.08;18.83;;;;;;;;;;4937101;29;20027;-53
2022/04/08 05:50:44;;;;;;;26.73;18.90;;;;;;;;;;4937257;29;20123;-54
2022/04/08 05:53:10;;;;;;;32.30;20.23;;;;;;;;;;4936852;29;20047;-55
2022/04/08 05:55:36;;;;;;;33.97;22.75;;;;;;;;;;4936709;29;20516;-52
2022/04/08 05:58:03;;;;;;;38.60;23.75;;;;;;;;;;4936490;29;20039;-54
2022/04/08 06:00:29;;;;;;;33.88;23.55;;;;;;;;;;4936920;29;20039;-55
2022/04/08 06:02:56;;;;;;;30.90;21.40;;;;;;;;;;4936937;29;20062;-53
2022/04/08 06:05:23;;;;;;;29.52;20.17;;;;;;;;;;4936570;29;20019;-54
2022/04/08 06:07:51;;;;;;;27.70;20.08;;;;;;;;;;4936852;29;20027;-54
2022/04/08 06:10:18;;;;;;;30.67;21.27;;;;;;;;;;4937091;29;20098;-53
2022/04/08 06:12:47;;;;;;;28.17;17.90;;;;;;;;;;4936779;29;20023;-55
2022/04/08 06:15:14;;;;;;;29.42;17.77;;;;;;;;;;4936759;29;20469;-55
2022/04/08 06:17:40;;;;;;;14.02;9.57;;;;;;;;;;4936509;29;20059;-51
2022/04/08 06:20:07;;;;;;;18.35;12.43;;;;;;;;;;4936294;29;20043;-51
2022/04/08 06:22:33;;;;;;;20.65;14.98;;;;;;;;;;4936363;29;20082;-52
2022/04/08 06:24:59;;;;;;;26.27;15.82;;;;;;;;;;4936677;29;20024;-52
2022/04/08 06:27:26;;;;;;;24.45;16.58;;;;;;;;;;4936399;29;20032;-51
2022/04/08 06:29:52;;;;;;;30.58;17.48;;;;;;;;;;4936834;29;20083;-51
2022/04/08 06:32:18;;;;;;;40.72;22.73;;;;;;;;;;4936784;29;20020;-53
2022/04/08 06:34:44;;;;;;;45.63;26.55;;;;;;;;;;4935955;29;20024;-51
2022/04/08 06:37:10;;;;;;;44.28;24.05;;;;;;;;;;4936545;29;20097;-56
2022/04/08 06:39:36;;;;;;;46.72;25.98;;;;;;;;;;4936331;29;20043;-53
2022/04/08 06:42:02;;;;;;;37.72;20.75;;;;;;;;;;4935033;29;20087;-53
2022/04/08 06:44:29;;;;;;;40.20;23.05;;;;;;;;;;4936448;29;20429;-55
2022/04/08 06:46:55;;;;;;;53.38;28.98;;;;;;;;;;4936576;29;20024;-50
2022/04/08 06:49:21;;;;;;;56.00;32.38;;;;;;;;;;4936132;29;20032;-53
2022/04/08 06:51:47;;;;;;;53.80;28.90;;;;;;;;;;4936423;29;20059;-55
2022/04/08 06:54:13;;;;;;;55.33;28.58;;;;;;;;;;4936099;29;20038;-53
2022/04/08 06:56:39;;;;;;;52.55;30.40;;;;;;;;;;4936319;29;20516;-56
2022/04/08 06:59:06;;;;;;;52.53;29.85;;;;;;;;;;4936214;29;20074;-53
2022/04/08 07:01:33;;;;;;;59.78;31.70;;;;;;;;;;4936079;29;20032;-54
2022/04/08 07:03:59;;;;;;;59.30;31.23;;;;;;;;;;4936776;29;20524;-50
2022/04/08 07:06:25;;;;;;;59.92;32.20;;;;;;;;;;4936263;29;20039;-55
2022/04/08 07:08:51;;;;;;;72.18;33.65;;;;;;;;;;4935908;29;20373;-54
2022/04/08 07:11:17;;;;;;;66.63;35.92;;;;;;;;;;4936178;29;20035;-51
2022/04/08 07:13:43;;;;;;;49.22;26.77;;;;;;;;;;4935842;29;20099;-55
2022/04/08 07:16:10;;;;;;;39.25;20.77;;;;;;;;;;4936129;29;20028;-57
2022/04/08 07:18:36;;;;;;;22.05;13.48;;;;;;;;;;4935869;29;20458;-55
2022/04/08 07:21:02;;;;;;;22.40;11.10;;;;;;;;;;4934575;29;20036;-56
2022/04/08 07:23:28;;;;;;;22.13;11.40;;;;;;;;;;4935808;29;20042;-55
2022/04/08 07:25:54;;;;;;;21.17;11.95;;;;;;;;;;4936144;29;20028;-58
2022/04/08 07:28:20;;;;;;;26.50;12.25;;;;;;;;;;4936199;29;20020;-56
2022/04/08 07:30:48;;;;;;;19.58;10.60;;;;;;;;;;4939458;29;20027;-57
2022/04/08 07:33:14;;;;;;;17.88;10.07;;;;;;;;;;4939424;29;20031;-56
2022/04/08 07:35:41;;;;;;;15.70;8.85;;;;;;;;;;4939393;29;20027;-56
2022/04/08 07:38:07;;;;;;;15.85;8.52;;;;;;;;;;4939057;29;20099;-56
2022/04/08 07:40:33;;;;;;;12.48;6.03;;;;;;;;;;4939168;29;20039;-55
2022/04/08 07:43:00;;;;;;;14.00;6.88;;;;;;;;;;4939297;29;20108;-57
2022/04/08 07:45:29;;;;;;;12.77;7.22;;;;;;;;;;4939046;29;20031;-54
2022/04/08 07:47:57;;;;;;;11.13;6.75;;;;;;;;;;4938789;29;20028;-53
2022/04/08 07:50:23;;;;;;;11.32;6.15;;;;;;;;;;4938930;29;20031;-53
2022/04/08 07:52:49;;;;;;;12.05;5.30;;;;;;;;;;4938783;29;20056;-55
2022/04/08 07:55:20;;;;;;;12.65;5.43;;;;;;;;;;4938875;29;20103;-57
2022/04/08 07:57:47;;;;;;;6.30;4.03;;;;;;;;;;4938616;29;20030;-55
2022/04/08 08:00:14;;;;;;;6.97;4.20;;;;;;;;;;4938252;29;20381;-53
2022/04/08 08:02:40;;;;;;;8.65;4.18;;;;;;;;;;4938315;29;20039;-55
2022/04/08 08:05:07;;;;;;;8.27;4.22;;;;;;;;;;4938400;29;20027;-52
2022/04/08 08:07:46;;;;;;;9.43;4.55;;;;;;;;;;4938565;29;20044;-55
2022/04/08 08:10:16;;;;;;;10.35;4.55;;;;;;;;;;4938422;29;20401;-54
2022/04/08 08:12:42;;;;;;;10.20;4.53;;;;;;;;;;4937981;29;20107;-55
2022/04/08 08:15:08;;;;;;;7.10;4.45;;;;;;;;;;4938396;29;20019;-55
2022/04/08 08:17:34;;;;;;;6.07;3.63;;;;;;;;;;4938060;29;20024;-54
2022/04/08 08:20:00;;;;;;;7.47;3.50;;;;;;;;;;4937140;29;20073;-57
2022/04/08 08:22:27;;;;;;;9.23;4.47;;;;;;;;;;4938667;29;20071;-55
2022/04/08 08:24:53;;;;;;;7.88;4.22;;;;;;;;;;4938472;29;20461;-55
2022/04/08 08:27:19;;;;;;;8.80;4.28;;;;;;;;;;4938228;29;20028;-57
2022/04/08 08:29:45;;;;;;;5.85;4.07;;;;;;;;;;4938286;29;20062;-57
2022/04/08 08:32:11;;;;;;;6.45;4.72;;;;;;;;;;4937741;29;20441;-56
2022/04/08 08:34:37;;;;;;;9.82;4.50;;;;;;;;;;4937708;29;20030;-55
2022/04/08 08:37:03;;;;;;;10.02;4.03;;;;;;;;;;4937764;29;20034;-57
2022/04/08 08:39:30;;;;;;;11.65;4.50;;;;;;;;;;4937965;29;20094;-52
2022/04/08 08:41:56;;;;;;;8.35;4.43;;;;;;;;;;4938094;29;20086;-49
2022/04/08 08:44:22;;;;;;;13.70;5.03;;;;;;;;;;4937837;29;20020;-48
2022/04/08 08:46:50;;;;;;;7.20;4.20;;;;;;;;;;4937515;29;20028;-51
2022/04/08 08:49:19;;;;;;;8.75;4.22;;;;;;;;;;4936387;29;20030;-49
2022/04/08 08:51:47;;;;;;;8.73;4.07;;;;;;;;;;4935901;29;20044;-53
2022/04/08 08:54:14;;;;;;;12.05;4.55;;;;;;;;;;4936775;29;20039;-52
2022/04/08 08:56:40;;;;;;;7.40;3.80;;;;;;;;;;4937361;29;20032;-51
2022/04/08 08:59:06;;;;;;;9.18;3.80;;;;;;;;;;4937316;29;20465;-50
2022/04/08 09:01:32;;;;;;;5.43;3.70;;;;;;;;;;4937271;29;20024;-51
2022/04/08 09:03:59;;;;;;;4.93;3.45;;;;;;;;;;4937564;29;20028;-49
2022/04/08 09:06:25;;;;;;;5.53;3.85;;;;;;;;;;4937433;29;20015;-53
2022/04/08 09:08:58;;;;;;;11.65;3.92;;;;;;;;;;4937110;29;20032;-52
2022/04/08 09:11:25;;;;;;;7.30;3.78;;;;;;;;;;4937337;29;20135;-47
2022/04/08 09:13:51;;;;;;;7.88;3.60;;;;;;;;;;4937218;29;20385;-52
2022/04/08 09:16:29;;;;;;;8.20;3.50;;;;;;;;;;4936669;29;20401;-49
2022/04/08 09:18:56;;;;;;;7.13;3.70;;;;;;;;;;4937440;29;20024;-50
2022/04/08 09:21:23;;;;;;;8.68;4.22;;;;;;;;;;4935853;29;20063;-48
2022/04/08 09:23:49;;;;;;;8.70;3.90;;;;;;;;;;4940282;29;20480;-50
2022/04/08 09:26:15;;;;;;;6.53;3.90;;;;;;;;;;4942303;29;20080;-51
2022/04/08 09:28:41;;;;;;;7.57;3.35;;;;;;;;;;4938065;29;20039;-51
2022/04/08 09:31:16;;;;;;;7.85;3.33;;;;;;;;;;4934421;29;20500;-51
2022/04/08 09:33:49;;;;;;;9.23;3.55;;;;;;;;;;4936710;29;20389;-52
2022/04/08 09:36:26;;;;;;;4.88;3.00;;;;;;;;;;4940831;29;20030;-52
2022/04/08 09:38:52;;;;;;;8.80;3.70;;;;;;;;;;4939778;28;20421;-51
2022/04/08 09:41:18;;;;;;;6.75;3.80;;;;;;;;;;4945077;29;20020;-51
2022/04/08 09:43:44;;;;;;;6.45;2.92;;;;;;;;;;4946767;29;20019;-52
2022/04/08 09:46:16;;;;;;;6.88;3.17;;;;;;;;;;4945781;29;20031;-51
2022/04/08 09:48:43;;;;;;;5.80;3.00;;;;;;;;;;4945186;28;20495;-52
2022/04/08 09:51:10;;;;;;;5.78;2.92;;;;;;;;;;4945246;28;20087;-48
2022/04/08 09:53:41;;;;;;;11.90;4.35;;;;;;;;;;4944683;28;20031;-50
2022/04/08 09:56:10;;;;;;;8.02;3.75;;;;;;;;;;4945489;28;20030;-50
2022/04/08 09:58:37;;;;;;;10.07;2.80;;;;;;;;;;4947355;29;20090;-49
2022/04/08 10:01:04;;;;;;;4.88;2.75;;;;;;;;;;4940010;29;20024;-47
2022/04/08 10:03:31;;;;;;;5.47;2.65;;;;;;;;;;4944599;28;20091;-48
2022/04/08 10:05:57;;;;;;;5.28;2.55;;;;;;;;;;4946146;28;20087;-52
2022/04/08 10:08:24;;;;;;;7.18;2.25;;;;;;;;;;4941391;29;20099;-53
2022/04/08 10:10:52;;;;;;;6.65;2.25;;;;;;;;;;4936531;29;20385;-54
2022/04/08 10:13:32;;;;;;;7.18;2.28;;;;;;;;;;4937091;29;20378;-53
2022/04/08 10:15:58;;;;;;;8.00;2.20;;;;;;;;;;4937071;29;20082;-51
2022/04/08 10:18:32;;;;;;;6.80;1.92;;;;;;;;;;4936377;29;20035;-50
2022/04/08 10:21:00;;;;;;;7.47;2.45;;;;;;;;;;4937197;29;20028;-52
2022/04/08 10:23:34;;;;;;;3.05;2.00;;;;;;;;;;4937018;29;20130;-54
2022/04/08 10:26:02;;;;;;;4.43;2.05;;;;;;;;;;4936314;29;20032;-51
2022/04/08 10:28:38;;;;;;;6.53;2.75;;;;;;;;;;4936559;29;20020;-49
2022/04/08 10:31:14;;;;;;;5.10;2.40;;;;;;;;;;4936160;29;20058;-52
2022/04/08 10:33:46;;;;;;;5.78;2.00;;;;;;;;;;4936254;29;20392;-49
2022/04/08 10:36:13;;;;;;;5.32;2.58;;;;;;;;;;4936839;29;20032;-53
2022/04/08 10:38:39;;;;;;;6.03;2.08;;;;;;;;;;4935908;29;20068;-53
2022/04/08 10:41:09;;;;;;;2.63;1.30;;;;;;;;;;4936678;29;20086;-53
2022/04/08 10:43:48;;;;;;;3.35;1.33;;;;;;;;;;4936094;29;20024;-54
2022/04/08 10:46:14;;;;;;;2.60;1.35;;;;;;;;;;4936357;29;20039;-54
2022/04/08 10:48:41;;;;;;;3.33;1.23;;;;;;;;;;4936155;29;20055;-54
2022/04/08 10:51:10;;;;;;;4.63;1.88;;;;;;;;;;4936321;29;20031;-49
2022/04/08 10:53:40;;;;;;;3.03;1.60;;;;;;;;;;4935622;29;20106;-51
2022/04/08 10:56:09;;;;;;;3.67;1.70;;;;;;;;;;4936311;29;20028;-52
2022/04/08 10:58:45;;;;;;;4.38;1.90;;;;;;;;;;4936313;29;20020;-53
2022/04/08 11:01:22;;;;;;;4.10;1.65;;;;;;;;;;4935148;29;20478;-54
2022/04/08 11:03:55;;;;;;;4.13;1.25;;;;;;;;;;4935674;29;20592;-52
2022/04/08 11:06:24;;;;;;;3.08;1.40;;;;;;;;;;4936741;29;20354;-50
2022/04/08 11:08:50;;;;;;;5.28;3.05;;;;;;;;;;4939996;29;20058;-48
2022/04/08 11:11:17;;;;;;;6.18;2.33;;;;;;;;;;4940081;29;20380;-47
2022/04/08 11:13:43;;;;;;;7.85;2.00;;;;;;;;;;4938880;29;20527;-48
2022/04/08 11:16:09;;;;;;;2.80;1.60;;;;;;;;;;4939658;29;20028;-47
2022/04/08 11:18:35;;;;;;;3.35;1.77;;;;;;;;;;4939611;29;20027;-47
2022/04/08 11:21:01;;;;;;;3.58;1.75;;;;;;;;;;4938950;29;20027;-48
2022/04/08 11:23:34;;;;;;;2.85;1.30;;;;;;;;;;4939653;29;20046;-49
2022/04/08 11:26:00;;;;;;;2.35;1.25;;;;;;;;;;4939324;29;20027;-49
2022/04/08 11:28:27;;;;;;;4.72;1.50;;;;;;;;;;4939235;29;20027;-51
2022/04/08 11:30:57;;;;;;;3.20;1.40;;;;;;;;;;4939650;29;20070;-50
2022/04/08 11:33:23;;;;;;;4.97;1.70;;;;;;;;;;4939398;29;20096;-51
2022/04/08 11:35:56;;;;;;;3.75;1.70;;;;;;;;;;4939039;29;20501;-52
2022/04/08 11:38:23;;;;;;;9.57;4.38;;;;;;;;;;4939616;29;20024;-52
2022/04/08 11:40:49;;;;;;;5.15;2.08;;;;;;;;;;4939733;29;20039;-49
2022/04/08 11:43:18;;;;;;;4.88;1.80;;;;;;;;;;4939215;29;20028;-53
2022/04/08 11:45:45;;;;;;;3.88;2.03;;;;;;;;;;4939332;29;20487;-54
2022/04/08 11:48:20;;;;;;;6.30;1.80;;;;;;;;;;4939055;29;20032;-54
2022/04/08 11:50:46;;;;;;;2.22;1.60;;;;;;;;;;4940147;29;20028;-53
2022/04/08 11:53:20;;;;;;;4.57;1.63;;;;;;;;;;4939998;29;20051;-54
2022/04/08 11:55:56;;;;;;;2.08;1.65;;;;;;;;;;4938879;29;20114;-62
2022/04/08 11:58:23;;;;;;;5.07;1.80;;;;;;;;;;4939468;29;20102;-59
2022/04/08 12:00:50;;;;;;;3.55;1.85;;;;;;;;;;4939073;29;20135;-51
2022/04/08 12:03:23;;;;;;;3.85;2.28;;;;;;;;;;4938700;29;20429;-47
2022/04/08 12:05:49;;;;;;;3.95;1.80;;;;;;;;;;4936595;29;20108;-49
2022/04/08 12:08:16;;;;;;;2.95;1.70;;;;;;;;;;4937347;29;20020;-53
2022/04/08 12:10:42;;;;;;;5.68;1.90;;;;;;;;;;4938291;29;20473;-51
2022/04/08 12:13:15;;;;;;;4.47;1.88;;;;;;;;;;4938442;29;20063;-51
2022/04/08 12:15:45;;;;;;;4.22;1.77;;;;;;;;;;4935710;29;20048;-52
2022/04/08 12:18:12;;;;;;;4.97;1.80;;;;;;;;;;4937909;29;20099;-52
2022/04/08 12:20:41;;;;;;;6.53;2.17;;;;;;;;;;4938362;29;20090;-51
2022/04/08 12:23:11;;;;;;;4.13;1.45;;;;;;;;;;4938100;29;20036;-52
2022/04/08 12:25:37;;;;;;;3.33;1.50;;;;;;;;;;4936085;29;20684;-53
2022/04/08 12:28:10;;;;;;;3.10;1.45;;;;;;;;;;4938330;29;20027;-53
2022/04/08 12:30:36;;;;;;;2.42;1.70;;;;;;;;;;4935620;29;20055;-50
2022/04/08 12:33:02;;;;;;;4.15;1.90;;;;;;;;;;4938228;29;20035;-52
2022/04/08 12:35:28;;;;;;;2.67;1.80;;;;;;;;;;4938207;29;20035;-50
2022/04/08 12:37:55;;;;;;;2.97;1.90;;;;;;;;;;4937780;29;20355;-52
2022/04/08 12:40:21;;;;;;;4.10;2.35;;;;;;;;;;4937975;29;20481;-52
2022/04/08 12:42:48;;;;;;;3.53;2.00;;;;;;;;;;4937796;29;20397;-53
2022/04/08 12:45:15;;;;;;;5.30;2.20;;;;;;;;;;4937607;29;20027;-50
2022/04/08 12:47:41;;;;;;;6.15;1.70;;;;;;;;;;4937890;29;20027;-52
2022/04/08 12:50:10;;;;;;;3.72;2.35;;;;;;;;;;4937960;29;20042;-52
2022/04/08 12:52:36;;;;;;;3.58;2.08;;;;;;;;;;4937294;29;20051;-53
2022/04/08 12:55:02;;;;;;;3.78;2.38;;;;;;;;;;4937868;29;20020;-52
2022/04/08 12:57:32;;;;;;;2.72;1.42;;;;;;;;;;4937813;29;20028;-51
2022/04/08 12:59:59;;;;;;;4.35;1.70;;;;;;;;;;4937430;29;20056;-52
2022/04/08 13:02:25;;;;;;;4.18;1.83;;;;;;;;;;4937371;29;20020;-52
2022/04/08 13:04:51;;;;;;;3.58;1.50;;;;;;;;;;4937548;29;20028;-50
2022/04/08 13:07:17;;;;;;;4.78;1.67;;;;;;;;;;4936996;29;20520;-54
2022/04/08 13:09:43;;;;;;;2.30;1.77;;;;;;;;;;4937196;29;20577;-53
2022/04/08 13:12:10;;;;;;;4.43;1.50;;;;;;;;;;4936922;29;20023;-54
2022/04/08 13:14:37;;;;;;;3.80;1.65;;;;;;;;;;4937334;29;20065;-50
2022/04/08 13:17:03;;;;;;;4.38;1.48;;;;;;;;;;4937215;29;20023;-51
2022/04/08 13:19:29;;;;;;;2.65;1.40;;;;;;;;;;4936924;29;20020;-52
2022/04/08 13:21:55;;;;;;;2.90;1.67;;;;;;;;;;4937300;29;20358;-53
2022/04/08 13:24:21;;;;;;;5.68;1.80;;;;;;;;;;4937237;29;20024;-53
2022/04/08 13:26:48;;;;;;;7.45;2.20;;;;;;;;;;4937106;29;20066;-54
2022/04/08 13:29:14;;;;;;;4.38;1.70;;;;;;;;;;4936856;29;20047;-52
2022/04/08 13:31:40;;;;;;;4.05;2.03;;;;;;;;;;4936787;29;20550;-54
2022/04/08 13:34:06;;;;;;;4.55;1.77;;;;;;;;;;4936725;29;20385;-53
2022/04/08 13:36:32;;;;;;;3.50;1.80;;;;;;;;;;4937013;29;20098;-54
2022/04/08 13:38:59;;;;;;;3.72;1.50;;;;;;;;;;4936983;29;20031;-51
2022/04/08 13:41:26;;;;;;;4.13;1.83;;;;;;;;;;4936347;29;20544;-50
2022/04/08 13:43:52;;;;;;;5.20;2.00;;;;;;;;;;4936999;29;20032;-51
2022/04/08 13:46:18;;;;;;;3.97;1.83;;;;;;;;;;4937552;29;20042;-53
2022/04/08 13:48:45;;;;;;;3.58;2.05;;;;;;;;;;4937013;29;20106;-52
2022/04/08 13:51:11;;;;;;;9.23;1.83;;;;;;;;;;4936431;29;20401;-50
2022/04/08 13:53:37;;;;;;;3.95;2.08;;;;;;;;;;4936521;29;20031;-52
2022/04/08 13:56:03;;;;;;;6.68;2.20;;;;;;;;;;4936367;29;20038;-50
2022/04/08 13:58:30;;;;;;;6.65;1.83;;;;;;;;;;4936953;29;20034;-52
2022/04/08 14:00:56;;;;;;;4.25;1.58;;;;;;;;;;4936722;29;20024;-49
2022/04/08 14:03:22;;;;;;;4.78;1.80;;;;;;;;;;4936399;29;20032;-51
2022/04/08 14:05:48;;;;;;;2.28;1.55;;;;;;;;;;4936538;29;20040;-49
2022/04/08 14:08:14;;;;;;;4.25;1.50;;;;;;;;;;4934449;29;20023;-49
2022/04/08 14:10:40;;;;;;;3.67;1.67;;;;;;;;;;4934916;29;20702;-49
2022/04/08 14:13:07;;;;;;;7.35;1.90;;;;;;;;;;4934866;29;20032;-51
2022/04/08 14:15:34;;;;;;;2.47;1.65;;;;;;;;;;4934583;29;20492;-50
2022/04/08 14:18:00;;;;;;;4.43;2.05;;;;;;;;;;4936787;29;20515;-48
2022/04/08 14:20:27;;;;;;;3.80;1.70;;;;;;;;;;4936092;29;20028;-50
2022/04/08 14:22:57;;;;;;;9.48;2.28;;;;;;;;;;4936581;29;20056;-53
2022/04/08 14:25:24;;;;;;;5.07;1.70;;;;;;;;;;4936953;29;20377;-48
2022/04/08 14:27:50;;;;;;;3.10;1.55;;;;;;;;;;4936710;29;20051;-47